Terminal Aerodrome Forecast
Issued by NWS

Home | Current Version | Previous Version | Text Only | Print | Product List | Glossary On
Versions: 1 2 3 4 5 6 7 8 9 10 11 12 13 14 15 16 17 18
000
FTUS46 KLOX 210200 AAA
TAFSBA
TAF AMD
KSBA 210229Z 2102/2124 VRB03KT P6SM FEW025 SCT150 WS015/33025KT
     FM211200 VRB03KT P6SM SCT150
     FM211700 15006KT P6SM SKC
     FM212200 24008KT P6SM SKC=

USA.gov is the U.S. government's official web portal to all federal, state and local government web resources and services.